Time;durP1;ratioP1;P1;durP2;ratioP2;P2;SDS_P1;SDS_P2;PMS_P1;PMS_P2;Temp;Humidity;BMP_temperature;BMP_pressure;BME280_temperature;BME280_humidity;BME280_pressure;Samples;Min_cycle;Max_cycle;Signal;HPM_P1;HPM_P2
2024/03/12 08:08:51;;;;;;;5.75;5.15;;;;;;;;;;10511010;28;20102;-81
2024/03/12 08:13:53;;;;;;;7.60;6.38;;;;;;;;;;10518745;28;20033;-78
2024/03/12 08:25:03;;;;;;;9.57;8.13;;;;;;;;;;10515878;28;20017;-84
2024/03/12 08:36:07;;;;;;;10.00;8.25;;;;;;;;;;10523749;28;20017;-85
2024/03/12 09:04:22;;;;;;;11.50;7.63;;;;;;;;;;10426609;28;20032;-86
2024/03/12 09:21:39;;;;;;;9.95;7.70;;;;;;;;;;10550668;28;20406;-86
2024/03/12 09:27:11;;;;;;;8.10;6.35;;;;;;;;;;10385180;28;20034;-86
2024/03/12 09:32:39;;;;;;;10.65;9.10;;;;;;;;;;10340968;28;20038;-86
2024/03/12 09:38:04;;;;;;;10.73;8.15;;;;;;;;;;10219852;29;20036;-85
2024/03/12 09:43:08;;;;;;;10.75;8.45;;;;;;;;;;10223133;29;20103;-85
2024/03/12 09:48:32;;;;;;;16.48;12.45;;;;;;;;;;10227149;28;20035;-86
2024/03/12 10:04:50;;;;;;;10.75;7.68;;;;;;;;;;10308964;28;20039;-80
2024/03/12 10:10:11;;;;;;;10.15;7.15;;;;;;;;;;10394656;28;20045;-84
2024/03/12 10:21:11;;;;;;;12.82;10.60;;;;;;;;;;10553463;28;20036;-85
2024/03/12 11:06:15;;;;;;;9.73;7.40;;;;;;;;;;10585696;28;20028;-86
2024/03/12 11:11:20;;;;;;;11.90;10.13;;;;;;;;;;10565291;28;20125;-86
2024/03/12 11:16:45;;;;;;;11.75;9.95;;;;;;;;;;10538377;28;20267;-84
2024/03/12 11:39:23;;;;;;;12.43;9.55;;;;;;;;;;10430152;28;20041;-85
2024/03/12 12:07:29;;;;;;;15.15;10.88;;;;;;;;;;10611334;22;20048;-84
2024/03/12 12:12:33;;;;;;;10.60;8.70;;;;;;;;;;10541446;28;20024;-83
2024/03/12 12:17:34;;;;;;;16.13;11.73;;;;;;;;;;10558965;28;20024;-83
2024/03/12 12:22:35;;;;;;;12.80;9.70;;;;;;;;;;10557285;28;20028;-82
2024/03/12 12:27:38;;;;;;;14.52;10.20;;;;;;;;;;10537894;28;20027;-83
2024/03/12 12:32:40;;;;;;;11.75;8.25;;;;;;;;;;10561986;28;20048;-84
2024/03/12 12:37:44;;;;;;;14.25;11.07;;;;;;;;;;10545920;28;20038;-83
2024/03/12 12:42:46;;;;;;;10.93;8.90;;;;;;;;;;10563433;28;20032;-82
2024/03/12 12:47:48;;;;;;;11.48;8.85;;;;;;;;;;10566963;28;20091;-83
2024/03/12 12:52:55;;;;;;;21.77;16.42;;;;;;;;;;10552575;28;20020;-83
2024/03/12 12:58:04;;;;;;;11.88;9.25;;;;;;;;;;10568268;28;20035;-82
2024/03/12 13:03:18;;;;;;;16.92;13.32;;;;;;;;;;10540425;28;20027;-83
2024/03/12 13:08:24;;;;;;;11.63;9.90;;;;;;;;;;10541701;28;20141;-83
2024/03/12 13:13:27;;;;;;;10.25;9.15;;;;;;;;;;10559875;28;20081;-84
2024/03/12 13:18:28;;;;;;;11.25;9.85;;;;;;;;;;10540608;28;20035;-84
2024/03/12 13:23:29;;;;;;;8.90;7.90;;;;;;;;;;10579449;28;20035;-83
2024/03/12 13:28:30;;;;;;;13.10;10.05;;;;;;;;;;10551956;28;20028;-84
2024/03/12 13:33:32;;;;;;;15.40;12.02;;;;;;;;;;10550172;28;20020;-83
2024/03/12 13:38:40;;;;;;;19.35;15.75;;;;;;;;;;10549160;28;20034;-82
2024/03/12 13:43:41;;;;;;;12.60;9.50;;;;;;;;;;10535217;28;20021;-82
2024/03/12 13:48:43;;;;;;;13.02;10.18;;;;;;;;;;10535761;28;20027;-83
2024/03/12 13:53:48;;;;;;;10.82;9.05;;;;;;;;;;10555561;28;20447;-83
2024/03/12 13:58:53;;;;;;;14.52;11.15;;;;;;;;;;10557425;28;20027;-84
2024/03/12 14:03:54;;;;;;;10.43;8.07;;;;;;;;;;10556986;28;20111;-84
2024/03/12 14:08:56;;;;;;;12.23;9.65;;;;;;;;;;10550332;28;20035;-83
2024/03/12 14:13:57;;;;;;;12.38;9.88;;;;;;;;;;10551675;28;20039;-83
2024/03/12 14:18:58;;;;;;;22.58;17.83;;;;;;;;;;10534791;28;20114;-84
2024/03/12 14:24:01;;;;;;;13.32;10.45;;;;;;;;;;10535579;28;20145;-84
2024/03/12 14:29:02;;;;;;;11.20;8.80;;;;;;;;;;10535909;28;20052;-83
2024/03/12 14:34:08;;;;;;;11.20;9.80;;;;;;;;;;10537777;28;20118;-84
2024/03/12 14:39:12;;;;;;;23.40;17.67;;;;;;;;;;10553971;28;20526;-83
2024/03/12 14:44:14;;;;;;;19.48;14.27;;;;;;;;;;10534203;28;20027;-84
2024/03/12 14:49:15;;;;;;;14.32;9.38;;;;;;;;;;10535601;28;20533;-83
2024/03/12 14:54:16;;;;;;;16.17;9.82;;;;;;;;;;10554996;28;20028;-85
2024/03/12 14:59:18;;;;;;;17.85;12.82;;;;;;;;;;10536287;28;20032;-84
2024/03/12 15:04:20;;;;;;;11.27;9.18;;;;;;;;;;10543378;28;20043;-85
2024/03/12 15:09:21;;;;;;;15.45;11.80;;;;;;;;;;10562265;28;20024;-84
2024/03/12 15:14:22;;;;;;;15.02;11.55;;;;;;;;;;10545538;28;20024;-84
2024/03/12 15:19:24;;;;;;;10.02;8.70;;;;;;;;;;10561263;28;20032;-83
2024/03/12 15:24:26;;;;;;;13.70;10.60;;;;;;;;;;10544583;28;20040;-83
2024/03/12 15:29:32;;;;;;;12.25;9.73;;;;;;;;;;10542348;28;20028;-84
2024/03/12 15:34:35;;;;;;;11.27;8.60;;;;;;;;;;10562825;28;20024;-83
2024/03/12 15:39:36;;;;;;;28.10;20.48;;;;;;;;;;10564311;28;20506;-83
2024/03/12 15:44:38;;;;;;;15.68;10.95;;;;;;;;;;10548070;28;20050;-82
2024/03/12 15:49:39;;;;;;;15.73;11.05;;;;;;;;;;10545852;28;20051;-82
2024/03/12 15:54:40;;;;;;;13.50;9.77;;;;;;;;;;10547090;28;20020;-82
2024/03/12 15:59:41;;;;;;;13.00;10.80;;;;;;;;;;10566353;28;20181;-81
2024/03/12 16:04:43;;;;;;;14.27;10.25;;;;;;;;;;10585719;28;20052;-83
2024/03/12 16:09:46;;;;;;;13.93;10.02;;;;;;;;;;10582997;28;20028;-82
2024/03/12 16:14:47;;;;;;;13.90;9.45;;;;;;;;;;10568492;28;20128;-84
2024/03/12 16:19:48;;;;;;;18.35;12.80;;;;;;;;;;10568962;28;20032;-83
2024/03/12 16:24:49;;;;;;;17.98;12.10;;;;;;;;;;10568205;28;20020;-84
2024/03/12 16:29:51;;;;;;;22.52;16.05;;;;;;;;;;10579117;28;20102;-82
2024/03/12 16:34:52;;;;;;;20.75;15.68;;;;;;;;;;10589167;28;20036;-83
2024/03/12 16:39:54;;;;;;;14.82;10.18;;;;;;;;;;10579768;28;20057;-82
2024/03/12 16:44:55;;;;;;;20.33;14.88;;;;;;;;;;10579612;28;20115;-84
2024/03/12 16:49:57;;;;;;;16.65;11.68;;;;;;;;;;10531379;28;20023;-83
2024/03/12 16:54:58;;;;;;;21.60;16.30;;;;;;;;;;10548825;28;20020;-82
2024/03/12 17:00:00;;;;;;;20.00;15.48;;;;;;;;;;10532582;28;20099;-83
2024/03/12 17:05:01;;;;;;;12.90;9.68;;;;;;;;;;10563357;28;20024;-83
2024/03/12 17:10:02;;;;;;;17.48;12.52;;;;;;;;;;10578548;28;20110;-84
2024/03/12 17:15:04;;;;;;;10.90;7.97;;;;;;;;;;10562984;28;20055;-84
2024/03/12 17:20:08;;;;;;;14.77;10.80;;;;;;;;;;10540572;28;20146;-82
2024/03/12 17:25:12;;;;;;;20.58;14.43;;;;;;;;;;10556501;28;20020;-83
2024/03/12 17:30:14;;;;;;;14.27;11.23;;;;;;;;;;10538351;28;20024;-83
2024/03/12 17:35:17;;;;;;;18.92;13.77;;;;;;;;;;10571781;28;20046;-82
2024/03/12 17:40:18;;;;;;;17.77;13.40;;;;;;;;;;10584010;28;20020;-83
2024/03/12 17:45:20;;;;;;;16.88;13.48;;;;;;;;;;10564598;28;20032;-83
2024/03/12 17:50:27;;;;;;;23.00;17.58;;;;;;;;;;10586210;28;20015;-82
2024/03/12 17:55:28;;;;;;;23.35;17.15;;;;;;;;;;10563413;28;20070;-84
2024/03/12 18:00:29;;;;;;;25.52;17.90;;;;;;;;;;10538198;28;20043;-84
2024/03/12 18:05:31;;;;;;;26.52;18.95;;;;;;;;;;10534725;28;20036;-80
2024/03/12 18:10:33;;;;;;;30.70;22.52;;;;;;;;;;10547845;28;20025;-81
2024/03/12 18:15:34;;;;;;;17.45;13.93;;;;;;;;;;10530516;28;20027;-80
2024/03/12 18:20:40;;;;;;;23.48;17.02;;;;;;;;;;10531555;28;20083;-80
2024/03/12 18:25:41;;;;;;;34.55;23.92;;;;;;;;;;10528739;28;20028;-80
2024/03/12 18:30:42;;;;;;;;;;;;;;;;;;10548822;28;20116;-80
2024/03/12 18:35:46;;;;;;;25.38;18.73;;;;;;;;;;10530233;28;19910;-80
2024/03/12 18:40:47;;;;;;;29.67;20.23;;;;;;;;;;10547241;28;20031;-80
2024/03/12 18:45:50;;;;;;;;;;;;;;;;;;10549454;28;20071;-80
2024/03/12 18:50:51;;;;;;;17.13;12.65;;;;;;;;;;10529078;28;20291;-80
2024/03/12 18:55:52;;;;;;;17.35;12.48;;;;;;;;;;10553081;28;20016;-79
2024/03/12 19:00:56;;;;;;;30.73;20.95;;;;;;;;;;10532116;28;20550;-80
2024/03/12 19:05:57;;;;;;;17.08;12.52;;;;;;;;;;10548351;28;20045;-80
2024/03/12 19:11:01;;;;;;;26.38;19.40;;;;;;;;;;10547395;28;20024;-80
2024/03/12 19:16:02;;;;;;;27.13;20.50;;;;;;;;;;10525802;28;20082;-80
2024/03/12 19:21:04;;;;;;;30.08;21.35;;;;;;;;;;10530468;28;20024;-80
2024/03/12 19:26:09;;;;;;;19.17;14.30;;;;;;;;;;10528640;28;20016;-80
2024/03/12 19:31:10;;;;;;;27.50;18.05;;;;;;;;;;10528686;28;20031;-80
2024/03/12 19:36:14;;;;;;;23.35;15.95;;;;;;;;;;10528105;28;20473;-80
2024/03/12 19:41:16;;;;;;;29.52;20.75;;;;;;;;;;10546346;28;20460;-80
2024/03/12 19:46:18;;;;;;;25.55;17.27;;;;;;;;;;10550349;28;20021;-80
2024/03/12 19:51:21;;;;;;;28.00;18.52;;;;;;;;;;10540756;28;20039;-79
2024/03/12 19:56:24;;;;;;;25.27;17.67;;;;;;;;;;10561193;28;20020;-81
2024/03/12 20:01:25;;;;;;;17.75;13.10;;;;;;;;;;10551633;28;20062;-81
2024/03/12 20:06:26;;;;;;;17.48;13.13;;;;;;;;;;10560453;28;20035;-80
